Terminal Aerodrome Forecast
Issued by NWS Shreveport, LA

Home | Current Version | Previous Version | Text Only | Print | Product List | Glossary On
Versions: 1 2 3 4 5 6 7 8 9 10 11 12 13 14 15 16 17 18 19 20 21 22 23 24 25 26
000
FTUS44 KSHV 261742
TAFSHV
TAF
KSHV 261742Z 2618/2718 20007KT P6SM SCT030
     FM270000 12008KT P6SM BKN120
     FM270900 06012KT P6SM OVC015
     FM271100 06013KT P6SM VCTS OVC015CB=

USA.gov is the U.S. government's official web portal to all federal, state and local government web resources and services.